Time;durP1;ratioP1;P1;durP2;ratioP2;P2;SDS_P1;SDS_P2;PMS_P1;PMS_P2;Temp;Humidity;BMP_temperature;BMP_pressure;BME280_temperature;BME280_humidity;BME280_pressure;Samples;Min_cycle;Max_cycle;Signal;HPM_P1;HPM_P2
2020/12/29 00:03:50;;;;;;;14.25;8.45;;;;;;;5.21;100.00;97938.81;10381273;82;21586;-93
2020/12/29 00:18:55;;;;;;;13.00;7.25;;;;;;;5.31;100.00;97933.80;10004662;82;21508;-88
2020/12/29 00:33:59;;;;;;;13.32;7.20;;;;;;;5.27;100.00;97925.19;9929609;88;21190;-90
2020/12/29 00:49:04;;;;;;;21.00;10.82;;;;;;;5.29;100.00;97915.42;9934292;88;21857;-93
2020/12/29 01:04:08;;;;;;;13.75;7.33;;;;;;;5.26;100.00;97900.96;9931782;88;21188;-92
2020/12/29 01:19:12;;;;;;;15.95;7.97;;;;;;;5.24;100.00;97889.09;9934457;85;21306;-90
2020/12/29 01:34:16;;;;;;;15.20;8.23;;;;;;;5.15;100.00;97873.98;9931154;88;21156;-92
2020/12/29 01:49:21;;;;;;;13.40;7.95;;;;;;;5.10;100.00;97866.66;9739760;90;21268;-92
2020/12/29 02:04:25;;;;;;;17.40;8.65;;;;;;;5.12;100.00;97844.39;9741231;90;21234;-91
2020/12/29 02:19:29;;;;;;;13.32;7.60;;;;;;;5.08;100.00;97826.20;10046790;87;21483;-91
2020/12/29 02:34:36;;;;;;;19.35;10.48;;;;;;;5.03;100.00;97816.77;9965013;88;21195;-93
2020/12/29 02:49:40;;;;;;;16.50;8.73;;;;;;;4.99;100.00;97809.30;9970676;88;21857;-90
2020/12/29 03:04:44;;;;;;;15.75;9.23;;;;;;;5.03;100.00;97785.59;9959569;88;21179;-92
2020/12/29 03:19:49;;;;;;;15.20;8.85;;;;;;;4.96;100.00;97751.64;10102392;87;21222;-92
2020/12/29 03:34:53;;;;;;;79.70;52.38;;;;;;;5.16;100.00;97739.96;10082508;87;21746;-88
2020/12/29 03:49:57;;;;;;;36.55;23.47;;;;;;;5.15;100.00;97730.53;10087870;86;21187;-91
2020/12/29 04:05:03;;;;;;;27.77;13.62;;;;;;;5.24;100.00;97698.86;10085194;86;21341;-90
2020/12/29 04:20:09;;;;;;;20.27;11.20;;;;;;;5.29;100.00;97696.58;9959156;88;21163;-90
2020/12/29 04:35:14;;;;;;;20.72;10.55;;;;;;;5.35;100.00;97687.30;9967841;86;21155;-92
2020/12/29 04:50:20;;;;;;;17.77;11.05;;;;;;;5.42;100.00;97664.05;9973546;88;21570;-87
2020/12/29 05:05:25;;;;;;;30.65;14.47;;;;;;;5.41;100.00;97668.92;9967396;87;21849;-92
2020/12/29 05:20:33;;;;;;;21.68;11.12;;;;;;;5.57;100.00;97652.46;9772568;89;21250;-91
2020/12/29 05:35:38;;;;;;;24.90;10.90;;;;;;;5.76;100.00;97646.07;9798554;88;21194;-92
2020/12/29 05:50:42;;;;;;;28.47;12.40;;;;;;;5.89;100.00;97637.73;10009250;87;21737;-93
2020/12/29 06:05:49;;;;;;;61.60;24.50;;;;;;;5.89;100.00;97616.91;10010325;87;21251;-93
2020/12/29 06:20:58;;;;;;;31.33;13.55;;;;;;;6.00;100.00;97602.23;10089551;86;21250;-92
2020/12/29 06:36:02;;;;;;;124.70;50.85;;;;;;;6.26;100.00;97609.72;10119981;86;21191;-92
2020/12/29 06:51:11;;;;;;;61.37;28.47;;;;;;;6.25;100.00;97583.36;10117166;86;21206;-91
2020/12/29 07:06:16;;;;;;;51.83;26.70;;;;;;;6.36;100.00;97577.43;10139682;86;21179;-92
2020/12/29 07:21:29;;;;;;;74.03;32.30;;;;;;;6.42;100.00;97571.03;9988817;86;21708;-93
2020/12/29 07:36:35;;;;;;;31.97;13.80;;;;;;;6.47;100.00;97578.33;9900240;88;21682;-93
2020/12/29 07:51:47;;;;;;;39.70;17.73;;;;;;;6.40;100.00;97574.80;9907440;88;21176;-92
2020/12/29 08:06:52;;;;;;;110.22;49.95;;;;;;;6.43;100.00;97566.14;9934613;87;21191;-93
2020/12/29 08:21:58;;;;;;;113.40;44.58;;;;;;;6.43;100.00;97562.74;10016330;86;21602;-88
2020/12/29 08:37:03;;;;;;;274.27;166.10;;;;;;;7.20;100.00;97556.96;10137985;86;21200;-88
2020/12/29 08:52:09;;;;;;;175.63;78.27;;;;;;;7.45;100.00;97560.09;10127194;86;21203;-92
2020/12/29 09:07:15;;;;;;;98.55;33.67;;;;;;;7.50;100.00;97562.96;10125636;86;21206;-92
2020/12/29 09:22:21;;;;;;;36.65;16.40;;;;;;;7.49;100.00;97555.61;9987816;87;21167;-90
2020/12/29 09:37:27;;;;;;;41.70;19.83;;;;;;;7.59;100.00;97562.37;9995725;88;21175;-91
2020/12/29 09:52:34;;;;;;;35.38;14.30;;;;;;;7.72;100.00;97557.78;9939157;88;21163;-90
2020/12/29 10:07:38;;;;;;;31.23;13.72;;;;;;;7.58;100.00;97539.37;9954762;87;21195;-92
2020/12/29 10:22:42;;;;;;;53.68;29.23;;;;;;;8.60;100.00;97518.46;9992297;87;21176;-91
2020/12/29 10:37:47;;;;;;;27.80;14.95;;;;;;;6.27;100.00;97505.10;9940831;87;21198;-92
2020/12/29 10:52:51;;;;;;;33.58;16.60;;;;;;;6.70;100.00;97505.84;9929107;88;21187;-91
2020/12/29 11:07:56;;;;;;;21.55;13.18;;;;;;;6.58;100.00;97491.14;9915055;88;21244;-90
2020/12/29 11:23:01;;;;;;;18.12;9.40;;;;;;;6.47;100.00;97494.48;9981562;88;21211;-91
2020/12/29 11:38:05;;;;;;;84.67;43.25;;;;;;;6.21;100.00;97509.19;9690724;91;21339;-90
2020/12/29 11:53:10;;;;;;;34.03;14.47;;;;;;;6.18;100.00;97532.98;9897979;88;21270;-90
2020/12/29 12:08:15;;;;;;;16.55;9.05;;;;;;;5.69;100.00;97581.38;9898301;88;21683;-92
2020/12/29 12:23:19;;;;;;;20.37;10.45;;;;;;;5.15;100.00;97633.57;9837447;88;21266;-91
2020/12/29 12:38:23;;;;;;;15.48;7.60;;;;;;;4.59;100.00;97681.00;9925122;88;21239;-89
2020/12/29 12:53:27;;;;;;;12.47;9.15;;;;;;;4.52;100.00;97717.66;9712269;90;21128;-93
2020/12/29 13:08:31;;;;;;;84.42;33.18;;;;;;;4.07;100.00;97763.74;9703086;90;21147;-90
2020/12/29 13:23:36;;;;;;;82.97;33.88;;;;;;;3.74;100.00;97811.55;9629050;90;21249;-90
2020/12/29 13:38:41;;;;;;;34.65;18.05;;;;;;;3.98;100.00;97854.17;9708002;89;21238;-90
2020/12/29 13:53:45;;;;;;;45.70;23.30;;;;;;;4.24;100.00;97898.78;9716186;89;21218;-90
2020/12/29 14:08:50;;;;;;;79.62;36.23;;;;;;;4.36;100.00;97939.58;9711321;90;21108;-92
2020/12/29 14:23:54;;;;;;;111.00;43.05;;;;;;;4.25;100.00;97970.47;9860682;88;21156;-91
2020/12/29 14:38:59;;;;;;;86.82;50.25;;;;;;;4.18;100.00;98004.48;9907252;88;21052;-91
2020/12/29 14:54:05;;;;;;;132.37;59.45;;;;;;;4.10;100.00;98048.05;9940938;88;21514;-91
2020/12/29 15:09:10;;;;;;;71.12;31.65;;;;;;;4.14;100.00;98077.47;9791182;89;21131;-89
2020/12/29 15:24:15;;;;;;;53.25;25.85;;;;;;;3.22;100.00;98114.64;10080659;86;21107;-90
2020/12/29 15:39:19;;;;;;;48.65;23.15;;;;;;;3.05;100.00;98136.91;9939133;88;21091;-90
2020/12/29 15:54:24;;;;;;;36.93;20.60;;;;;;;3.02;100.00;98162.62;9924643;88;21100;-91
2020/12/29 16:09:28;;;;;;;49.03;25.08;;;;;;;2.93;100.00;98196.66;9939567;88;21080;-90
2020/12/29 16:24:33;;;;;;;49.05;23.22;;;;;;;2.92;100.00;98217.53;9913511;87;21472;-89
2020/12/29 16:39:39;;;;;;;42.95;19.80;;;;;;;3.02;100.00;98249.89;9911556;88;21088;-89
2020/12/29 16:54:44;;;;;;;35.10;19.32;;;;;;;3.04;100.00;98286.86;9909440;88;21077;-89
2020/12/29 17:09:49;;;;;;;42.35;21.10;;;;;;;3.23;100.00;98306.75;9908801;88;21155;-90
2020/12/29 17:24:53;;;;;;;58.68;33.23;;;;;;;3.29;100.00;98336.02;9923818;87;21620;-90
2020/12/29 17:39:58;;;;;;;144.77;65.85;;;;;;;3.23;100.00;98352.11;9893849;87;21219;-90
2020/12/29 17:55:03;;;;;;;66.75;34.33;;;;;;;3.25;100.00;98372.24;9431469;93;21139;-91
2020/12/29 18:10:08;;;;;;;60.35;30.92;;;;;;;3.06;100.00;98396.34;9754211;88;21234;-90
2020/12/29 18:25:15;;;;;;;51.95;27.25;;;;;;;3.43;100.00;98415.14;9538851;91;21302;-90
2020/12/29 18:40:20;;;;;;;;;;;;;;;3.47;100.00;98447.62;9794236;88;21625;-94
2020/12/29 18:55:24;;;;;;;45.45;23.90;;;;;;;3.76;100.00;98463.22;9915939;88;20534;-93
2020/12/29 19:10:29;;;;;;;45.65;21.10;;;;;;;3.92;100.00;98490.38;9738834;89;21060;-93
2020/12/29 19:25:33;;;;;;;43.48;19.10;;;;;;;3.85;100.00;98508.75;9905061;88;21088;-90
2020/12/29 19:40:37;;;;;;;34.33;16.60;;;;;;;4.16;100.00;98526.31;9770938;89;21120;-90
2020/12/29 19:55:42;;;;;;;54.95;20.12;;;;;;;4.20;100.00;98552.78;9930736;88;21109;-90
2020/12/29 20:10:48;;;;;;;67.03;25.17;;;;;;;4.32;100.00;98594.05;9941452;88;21096;-89
2020/12/29 20:25:53;;;;;;;57.85;29.20;;;;;;;4.26;100.00;98618.45;9990731;86;21960;-89
2020/12/29 20:40:58;;;;;;;40.00;18.30;;;;;;;4.18;100.00;98631.29;9934088;88;21080;-94
2020/12/29 20:56:04;;;;;;;32.67;17.70;;;;;;;4.28;100.00;98641.21;9892136;88;21660;-87
2020/12/29 21:11:10;;;;;;;36.93;19.98;;;;;;;3.95;100.00;98684.72;9932738;88;21153;-87
2020/12/29 21:26:22;;;;;;;32.37;15.27;;;;;;;4.13;100.00;98687.02;9958786;87;21258;-88
2020/12/29 21:41:27;;;;;;;26.45;11.48;;;;;;;3.83;100.00;98704.75;9757013;89;21699;-86
2020/12/29 21:56:31;;;;;;;23.62;11.70;;;;;;;3.47;100.00;98738.84;9888266;88;21506;-85
2020/12/29 22:11:37;;;;;;;31.10;13.88;;;;;;;3.34;100.00;98775.80;9939836;88;21136;-85
2020/12/29 22:26:43;;;;;;;27.85;13.18;;;;;;;3.13;100.00;98790.03;9959086;87;21068;-84
2020/12/29 22:41:47;;;;;;;56.35;25.85;;;;;;;3.32;100.00;98819.16;10082803;86;21067;-86
2020/12/29 22:56:52;;;;;;;24.07;10.60;;;;;;;2.85;100.00;98835.45;10046063;87;21132;-89
2020/12/29 23:11:56;;;;;;;29.10;14.03;;;;;;;3.24;100.00;98857.84;10056774;86;21542;-88
2020/12/29 23:27:00;;;;;;;28.23;14.70;;;;;;;3.06;100.00;98873.92;9922598;87;21618;-85
2020/12/29 23:42:04;;;;;;;24.55;11.93;;;;;;;2.91;100.00;98888.08;9933335;88;21247;-88
2020/12/29 23:57:09;;;;;;;28.92;13.40;;;;;;;2.94;100.00;98905.97;10095274;87;21092;-89
